Time;durP1;ratioP1;P1;durP2;ratioP2;P2;SDS_P1;SDS_P2;PMS_P1;PMS_P2;Temp;Humidity;BMP_temperature;BMP_pressure;BME280_temperature;BME280_humidity;BME280_pressure;Samples;Min_cycle;Max_cycle;Signal;HPM_P1;HPM_P2
2021/12/24 00:01:55;;;;;;;17.20;8.43;;;;;;;6.81;96.56;99029.25;8445135;28;20305;-80
2021/12/24 00:05:56;;;;;;;19.83;8.85;;;;;;;6.86;95.85;99014.81;8438934;28;20753;-81
2021/12/24 00:09:57;;;;;;;17.65;9.35;;;;;;;6.86;95.56;99017.56;8437027;28;20064;-82
2021/12/24 00:13:59;;;;;;;17.30;8.68;;;;;;;6.80;95.13;99013.88;8435373;28;20355;-80
2021/12/24 00:18:08;;;;;;;15.30;8.38;;;;;;;6.89;94.90;99013.50;8431228;28;20044;-81
2021/12/24 00:35:45;;;;;;;17.52;8.60;;;;;;;6.75;98.79;99013.81;8449298;28;20196;-79
2021/12/24 00:39:26;;;;;;;18.27;9.00;;;;;;;6.69;100.00;99013.94;8433762;28;20040;-79
2021/12/24 00:43:27;;;;;;;14.68;8.00;;;;;;;6.67;100.00;99005.16;8435416;28;20050;-80
2021/12/24 00:47:28;;;;;;;15.35;9.27;;;;;;;6.65;100.00;99008.13;8432763;28;20040;-79
2021/12/24 00:51:53;;;;;;;19.38;9.40;;;;;;;6.65;100.00;99008.13;8404652;28;20118;-79
2021/12/24 00:55:50;;;;;;;17.33;9.45;;;;;;;6.68;100.00;99006.81;8423483;28;20496;-80
2021/12/24 00:59:51;;;;;;;16.58;8.38;;;;;;;6.67;100.00;99014.19;8437571;28;20062;-79
2021/12/24 01:03:51;;;;;;;15.00;7.82;;;;;;;6.71;100.00;98998.94;8427566;28;20107;-79
2021/12/24 01:07:52;;;;;;;15.98;7.93;;;;;;;6.76;100.00;98993.56;8442353;28;20036;-79
2021/12/24 01:11:55;;;;;;;14.98;7.88;;;;;;;6.78;100.00;99002.38;8429221;28;20064;-79
2021/12/24 01:20:03;;;;;;;15.55;8.10;;;;;;;6.94;99.31;98997.19;8441184;28;20109;-80
2021/12/24 01:24:09;;;;;;;15.68;8.15;;;;;;;7.04;98.90;98992.69;8434736;28;20051;-79
2021/12/24 01:41:18;;;;;;;14.43;7.55;;;;;;;7.30;97.34;98973.97;8435411;27;20583;-79
2021/12/24 01:45:29;;;;;;;13.30;8.07;;;;;;;7.32;96.53;98971.81;8434446;28;20438;-80
2021/12/24 01:49:29;;;;;;;12.80;7.00;;;;;;;7.45;95.72;98956.94;8428920;28;20036;-80
2021/12/24 01:53:34;;;;;;;13.65;7.25;;;;;;;7.50;95.47;98954.28;8424895;28;20394;-80
2021/12/24 01:57:36;;;;;;;12.10;6.50;;;;;;;7.56;94.89;98958.75;8437809;28;20523;-80
2021/12/24 02:01:37;;;;;;;12.90;6.45;;;;;;;7.63;94.62;98942.13;8437773;28;20031;-80
2021/12/24 02:05:39;;;;;;;16.30;7.20;;;;;;;7.69;94.37;98938.38;8430815;28;20076;-79
2021/12/24 02:09:40;;;;;;;12.47;7.60;;;;;;;7.68;93.80;98933.97;8410872;28;20024;-80
2021/12/24 02:13:40;;;;;;;12.10;6.75;;;;;;;7.70;93.86;98940.88;8444006;28;20031;-80
2021/12/24 02:18:05;;;;;;;11.57;6.70;;;;;;;7.78;93.01;98938.78;8439598;28;20059;-79
2021/12/24 02:30:45;;;;;;;14.98;7.40;;;;;;;7.88;92.25;98904.09;8438051;28;20449;-82
2021/12/24 02:34:46;;;;;;;12.60;6.70;;;;;;;7.84;92.39;98910.31;8443042;28;20028;-81
2021/12/24 02:38:48;;;;;;;16.70;6.80;;;;;;;7.76;92.32;98904.22;8445190;28;20036;-80
2021/12/24 02:42:53;;;;;;;13.20;6.82;;;;;;;7.82;92.47;98896.03;8421285;28;20492;-81
2021/12/24 02:55:22;;;;;;;13.32;7.40;;;;;;;7.77;92.09;98902.28;8434575;28;20057;-81
2021/12/24 02:59:26;;;;;;;10.95;6.40;;;;;;;7.73;92.39;98901.13;8426812;28;20092;-81
2021/12/24 03:03:28;;;;;;;13.00;6.60;;;;;;;7.71;92.55;98906.06;8428407;28;20034;-82
2021/12/24 03:07:28;;;;;;;11.73;6.53;;;;;;;7.73;92.34;98903.88;8442149;28;20052;-80
2021/12/24 03:11:28;;;;;;;12.57;7.13;;;;;;;7.63;92.74;98899.06;8434800;28;20146;-80
2021/12/24 03:15:29;;;;;;;13.18;7.03;;;;;;;7.71;92.29;98906.88;8430314;28;20039;-80
2021/12/24 03:19:33;;;;;;;15.32;6.63;;;;;;;7.64;92.74;98897.97;8452721;28;20416;-81
2021/12/24 03:27:38;;;;;;;14.18;8.05;;;;;;;7.61;93.18;98901.22;8436959;28;20039;-80
2021/12/24 03:31:39;;;;;;;11.18;6.82;;;;;;;7.60;93.43;98894.09;8433514;28;20042;-80
2021/12/24 03:35:39;;;;;;;15.25;8.32;;;;;;;7.59;93.28;98881.47;8441006;28;20107;-80
2021/12/24 03:39:40;;;;;;;12.00;7.07;;;;;;;7.48;93.90;98871.44;8428340;28;20050;-80
2021/12/24 03:43:41;;;;;;;11.73;6.18;;;;;;;7.44;94.71;98859.34;8454250;27;20028;-81
2021/12/24 03:47:42;;;;;;;10.85;5.72;;;;;;;7.39;94.87;98848.31;8440111;27;20031;-80
2021/12/24 03:51:52;;;;;;;13.95;6.97;;;;;;;7.41;95.20;98846.97;8436792;28;20085;-81
2021/12/24 03:55:53;;;;;;;11.85;6.88;;;;;;;7.41;95.55;98857.09;8445377;27;20019;-81
2021/12/24 03:59:55;;;;;;;14.13;7.85;;;;;;;7.48;95.51;98863.22;8437123;28;20023;-83
2021/12/24 04:04:14;;;;;;;13.48;7.25;;;;;;;7.55;95.66;98863.88;8429986;28;20097;-82
2021/12/24 04:08:45;;;;;;;14.00;6.97;;;;;;;7.49;95.98;98853.91;8433626;28;20036;-82
2021/12/24 04:13:10;;;;;;;14.77;7.15;;;;;;;7.53;96.47;98866.03;8438411;28;20054;-81
2021/12/24 04:17:11;;;;;;;15.27;7.78;;;;;;;7.59;96.40;98870.53;8421442;28;20503;-81
2021/12/24 04:25:31;;;;;;;18.77;9.45;;;;;;;7.60;98.17;98872.16;8449780;28;20088;-81
2021/12/24 04:29:31;;;;;;;17.23;9.23;;;;;;;7.64;98.02;98865.06;8429502;28;20058;-81
2021/12/24 04:33:36;;;;;;;16.52;8.90;;;;;;;7.65;98.40;98863.19;8436383;28;20027;-80
2021/12/24 05:03:42;;;;;;;18.65;9.75;;;;;;;7.57;100.00;98850.75;8445777;28;20114;-82
2021/12/24 05:11:53;;;;;;;25.33;11.20;;;;;;;7.59;100.00;98850.50;8435807;28;20024;-79
2021/12/24 05:16:04;;;;;;;22.83;12.07;;;;;;;7.54;100.00;98845.75;8439843;28;20400;-82
2021/12/24 05:24:49;;;;;;;28.23;12.10;;;;;;;7.45;100.00;98850.03;8449721;28;20023;-80
2021/12/24 05:28:51;;;;;;;23.13;12.10;;;;;;;7.42;100.00;98858.75;8449784;28;20043;-81
2021/12/24 05:32:52;;;;;;;19.60;10.13;;;;;;;7.42;100.00;98859.59;8439183;28;20097;-82
2021/12/24 05:36:53;;;;;;;25.20;12.18;;;;;;;7.43;100.00;98854.94;8440712;28;20032;-81
2021/12/24 05:40:53;;;;;;;22.08;11.10;;;;;;;7.47;100.00;98856.91;8437088;28;20040;-80
2021/12/24 05:45:00;;;;;;;23.45;11.88;;;;;;;7.46;100.00;98862.63;8448138;28;21194;-81
2021/12/24 05:49:21;;;;;;;23.13;11.57;;;;;;;7.51;100.00;98868.19;8457920;27;20032;-81
2021/12/24 05:53:44;;;;;;;24.73;12.25;;;;;;;7.48;100.00;98868.72;8450010;28;20550;-80
2021/12/24 05:57:55;;;;;;;26.52;11.82;;;;;;;7.51;100.00;98859.97;8446278;28;20028;-82
2021/12/24 06:01:57;;;;;;;24.00;12.55;;;;;;;7.46;100.00;98857.97;8457417;28;20038;-81
2021/12/24 06:05:57;;;;;;;22.25;12.20;;;;;;;7.47;100.00;98864.31;8475796;28;20031;-82
2021/12/24 06:09:57;;;;;;;26.77;11.68;;;;;;;7.48;100.00;98865.97;8432977;28;20131;-81
2021/12/24 06:13:58;;;;;;;21.55;12.70;;;;;;;7.51;100.00;98869.03;8445940;28;20039;-81
2021/12/24 06:17:59;;;;;;;23.77;11.40;;;;;;;7.41;100.00;98860.69;8455331;28;20055;-81
2021/12/24 06:22:01;;;;;;;24.90;12.15;;;;;;;7.49;100.00;98867.63;8444253;28;20035;-81
2021/12/24 06:26:04;;;;;;;28.63;12.73;;;;;;;7.52;100.00;98875.34;8448307;28;20032;-81
2021/12/24 06:30:07;;;;;;;26.70;12.85;;;;;;;7.50;100.00;98872.03;8445173;28;20440;-80
2021/12/24 06:34:07;;;;;;;24.70;12.32;;;;;;;7.46;100.00;98876.34;8422084;28;20040;-79
2021/12/24 06:38:08;;;;;;;24.80;11.48;;;;;;;7.45;100.00;98875.53;8429687;28;20618;-80
2021/12/24 06:42:09;;;;;;;26.80;13.02;;;;;;;7.42;100.00;98867.81;8433838;28;20089;-79
2021/12/24 06:46:12;;;;;;;26.13;13.05;;;;;;;7.41;100.00;98876.28;8427057;28;20460;-79
2021/12/24 06:50:13;;;;;;;23.63;12.57;;;;;;;7.33;100.00;98879.47;8430474;28;20042;-80
2021/12/24 06:54:14;;;;;;;29.48;13.60;;;;;;;7.24;100.00;98879.06;8441670;28;20389;-79
2021/12/24 06:58:14;;;;;;;23.67;13.25;;;;;;;7.22;100.00;98870.25;8461257;27;20038;-79
2021/12/24 07:02:16;;;;;;;28.85;13.55;;;;;;;7.12;100.00;98879.13;8443770;28;20103;-79
2021/12/24 07:06:16;;;;;;;26.65;13.38;;;;;;;7.13;100.00;98888.19;8450364;28;20537;-80
2021/12/24 07:10:18;;;;;;;26.88;13.25;;;;;;;7.20;100.00;98899.81;8452495;28;20496;-80
2021/12/24 07:14:18;;;;;;;27.25;14.48;;;;;;;7.22;100.00;98901.22;8449861;28;20042;-79
2021/12/24 07:18:19;;;;;;;30.30;13.98;;;;;;;7.27;100.00;98901.28;8434069;28;20027;-79
2021/12/24 07:22:20;;;;;;;27.75;14.18;;;;;;;7.27;100.00;98905.94;8445910;27;20034;-79
2021/12/24 07:26:21;;;;;;;25.50;13.13;;;;;;;7.38;100.00;98901.47;8450176;28;20030;-79
2021/12/24 07:30:22;;;;;;;29.83;14.07;;;;;;;7.41;100.00;98910.00;8456626;28;20032;-79
2021/12/24 07:34:23;;;;;;;27.73;12.57;;;;;;;7.39;100.00;98897.63;8451292;28;20035;-79
2021/12/24 07:38:23;;;;;;;27.85;14.35;;;;;;;7.46;100.00;98904.59;8438429;28;20024;-80
2021/12/24 07:42:26;;;;;;;24.40;13.43;;;;;;;7.45;100.00;98904.84;8444408;28;20477;-79
2021/12/24 07:46:36;;;;;;;30.25;13.52;;;;;;;7.51;100.00;98912.06;8440438;28;20028;-80
2021/12/24 07:54:53;;;;;;;32.00;14.43;;;;;;;7.55;100.00;98907.72;8453210;28;20115;-80
2021/12/24 07:58:54;;;;;;;28.30;13.85;;;;;;;7.58;100.00;98909.13;8433192;28;20035;-80
2021/12/24 08:02:57;;;;;;;32.53;14.80;;;;;;;7.58;100.00;98912.69;8440994;28;20085;-79
2021/12/24 08:07:01;;;;;;;27.45;14.10;;;;;;;7.60;100.00;98909.72;8435039;28;20056;-80
2021/12/24 08:11:01;;;;;;;25.88;14.02;;;;;;;7.59;100.00;98899.84;8447739;28;20065;-80
2021/12/24 08:15:04;;;;;;;30.55;13.20;;;;;;;7.64;100.00;98892.50;8445193;27;20040;-80
2021/12/24 08:19:05;;;;;;;34.88;14.18;;;;;;;7.64;100.00;98891.69;8464875;27;20495;-80
2021/12/24 08:23:05;;;;;;;26.58;12.80;;;;;;;7.62;100.00;98893.88;8447436;28;20044;-80
2021/12/24 08:27:07;;;;;;;25.67;13.38;;;;;;;7.66;100.00;98889.53;8464446;28;20023;-80
2021/12/24 08:31:08;;;;;;;29.10;12.68;;;;;;;7.66;100.00;98904.06;8441856;28;20046;-80
2021/12/24 08:35:12;;;;;;;26.20;12.70;;;;;;;7.64;100.00;98910.88;8453407;28;20032;-80
2021/12/24 08:39:13;;;;;;;24.10;11.65;;;;;;;7.59;100.00;98897.94;8444425;28;20032;-80
2021/12/24 08:43:14;;;;;;;24.00;11.73;;;;;;;7.61;100.00;98901.22;8437379;28;20405;-80
2021/12/24 08:47:14;;;;;;;26.15;12.27;;;;;;;7.59;100.00;98908.91;8457650;27;20439;-80
2021/12/24 08:51:15;;;;;;;29.03;12.80;;;;;;;7.63;100.00;98910.03;8454454;27;20023;-80
2021/12/24 08:55:16;;;;;;;25.00;12.23;;;;;;;7.63;100.00;98901.81;8448842;28;20293;-80
2021/12/24 08:59:18;;;;;;;23.73;11.63;;;;;;;7.58;100.00;98903.66;8447205;28;20507;-79
2021/12/24 09:03:19;;;;;;;18.73;10.88;;;;;;;7.66;100.00;98897.75;8438605;28;20036;-80
2021/12/24 09:07:20;;;;;;;26.25;13.18;;;;;;;7.60;100.00;98901.50;8450054;28;20058;-80
2021/12/24 09:11:20;;;;;;;25.08;12.68;;;;;;;7.67;100.00;98893.91;8439418;28;20063;-80
2021/12/24 09:15:21;;;;;;;24.30;11.50;;;;;;;7.76;100.00;98882.28;8435997;28;20032;-79
2021/12/24 09:19:25;;;;;;;25.33;11.70;;;;;;;7.78;100.00;98883.91;8454739;28;20562;-80
2021/12/24 09:23:26;;;;;;;23.42;11.93;;;;;;;7.81;100.00;98884.22;8461132;27;20058;-79
2021/12/24 09:27:27;;;;;;;21.48;11.57;;;;;;;7.91;100.00;98886.28;8451828;28;20031;-81
2021/12/24 09:31:28;;;;;;;24.52;12.05;;;;;;;8.04;100.00;98885.91;8453084;28;20160;-80
2021/12/24 09:35:29;;;;;;;19.38;11.82;;;;;;;8.06;100.00;98902.94;8459501;28;20043;-81
2021/12/24 09:39:31;;;;;;;;;;;;;;;8.15;100.00;98889.56;8444180;28;20058;-79
2021/12/24 09:43:32;;;;;;;23.50;11.73;;;;;;;8.26;100.00;98891.34;8438772;28;19922;-80
2021/12/24 09:47:33;;;;;;;22.35;11.85;;;;;;;8.34;100.00;98870.88;8443600;27;20026;-80
2021/12/24 09:51:39;;;;;;;30.27;13.18;;;;;;;8.42;99.48;98868.53;8445605;28;21840;-79
2021/12/24 09:55:39;;;;;;;21.55;11.98;;;;;;;8.50;99.52;98872.69;8450762;28;20028;-81
2021/12/24 09:59:40;;;;;;;23.73;11.35;;;;;;;8.55;98.81;98877.44;8436704;28;20035;-81
2021/12/24 10:03:41;;;;;;;21.80;11.70;;;;;;;8.47;98.30;98867.72;8438744;28;20050;-81
2021/12/24 10:07:41;;;;;;;25.73;11.18;;;;;;;8.49;98.72;98862.81;8444196;28;20032;-81
2021/12/24 10:11:50;;;;;;;21.33;11.80;;;;;;;8.49;98.94;98873.81;8432423;28;20047;-80
2021/12/24 10:16:15;;;;;;;22.23;11.18;;;;;;;8.33;99.16;98861.81;8440569;28;20385;-80
2021/12/24 10:20:20;;;;;;;21.73;10.93;;;;;;;8.28;99.87;98852.69;8449900;28;20038;-80
2021/12/24 10:24:23;;;;;;;19.98;10.88;;;;;;;8.32;100.00;98851.06;8447167;28;20043;-81
2021/12/24 10:28:26;;;;;;;21.25;12.43;;;;;;;8.17;100.00;98849.81;8431873;28;20062;-80
2021/12/24 10:32:26;;;;;;;17.05;9.90;;;;;;;8.12;100.00;98852.53;8446723;28;20054;-80
2021/12/24 10:36:27;;;;;;;18.50;10.45;;;;;;;8.21;100.00;98844.66;8454739;28;20038;-81
2021/12/24 10:40:30;;;;;;;20.52;10.60;;;;;;;8.30;100.00;98839.50;8440944;28;20080;-80
2021/12/24 10:44:34;;;;;;;24.42;12.32;;;;;;;8.28;100.00;98838.97;8455212;28;20408;-80
2021/12/24 10:48:35;;;;;;;20.63;10.25;;;;;;;8.19;100.00;98835.84;8447365;28;20028;-80
2021/12/24 10:57:14;;;;;;;19.17;9.77;;;;;;;8.18;100.00;98823.22;8451156;28;20042;-81
2021/12/24 11:01:16;;;;;;;19.85;10.70;;;;;;;8.07;100.00;98821.47;8444394;28;20040;-81
2021/12/24 11:05:31;;;;;;;19.67;11.13;;;;;;;7.98;100.00;98812.84;8453056;28;20400;-81
2021/12/24 11:09:32;;;;;;;22.33;11.20;;;;;;;8.02;100.00;98802.19;8424950;28;20031;-81
2021/12/24 11:13:39;;;;;;;23.02;11.70;;;;;;;8.11;100.00;98806.94;8451628;28;20024;-80
2021/12/24 11:17:40;;;;;;;19.73;11.23;;;;;;;8.08;100.00;98785.50;8451719;28;20394;-82
2021/12/24 11:21:40;;;;;;;19.20;11.02;;;;;;;8.09;100.00;98783.59;8449607;28;20071;-80
2021/12/24 11:25:43;;;;;;;20.10;11.35;;;;;;;8.11;100.00;98782.25;8458182;28;20020;-81
2021/12/24 11:29:43;;;;;;;;;;;;;;;8.25;100.00;98774.44;8438468;28;20024;-81
2021/12/24 11:33:46;;;;;;;20.92;9.98;;;;;;;8.47;100.00;98782.63;8459781;28;20018;-81
2021/12/24 11:37:47;;;;;;;20.83;10.17;;;;;;;8.56;100.00;98792.03;8458000;28;20117;-81
2021/12/24 11:41:48;;;;;;;17.75;9.00;;;;;;;8.50;99.61;98797.75;8444430;28;20282;-81
2021/12/24 11:45:49;;;;;;;17.02;9.55;;;;;;;8.54;99.50;98794.22;8452737;28;20080;-80
2021/12/24 11:49:50;;;;;;;15.68;9.57;;;;;;;8.49;99.79;98794.19;8447301;27;20473;-81
2021/12/24 11:53:52;;;;;;;20.08;10.07;;;;;;;8.46;99.80;98793.88;8454657;28;20491;-82
2021/12/24 11:57:59;;;;;;;14.98;8.90;;;;;;;8.39;99.94;98783.13;8452148;28;20114;-81
2021/12/24 12:01:59;;;;;;;17.30;9.55;;;;;;;8.40;99.76;98782.84;8452479;28;20047;-81
2021/12/24 12:06:03;;;;;;;14.63;9.07;;;;;;;8.44;99.66;98763.94;8455425;28;20027;-80
2021/12/24 12:10:05;;;;;;;18.15;8.77;;;;;;;8.50;99.96;98756.56;8439329;28;20032;-82
2021/12/24 12:14:17;;;;;;;14.77;8.95;;;;;;;8.58;98.98;98765.16;8444465;28;20032;-79
2021/12/24 12:18:29;;;;;;;13.77;8.32;;;;;;;8.46;99.04;98758.19;8441117;28;20024;-81
2021/12/24 12:26:48;;;;;;;15.02;8.80;;;;;;;8.26;100.00;98765.09;8439568;28;20044;-81
2021/12/24 12:30:50;;;;;;;15.85;7.88;;;;;;;8.26;100.00;98753.31;8435938;28;20089;-80
2021/12/24 12:34:53;;;;;;;14.67;7.70;;;;;;;8.30;100.00;98760.78;8447449;28;20508;-79
2021/12/24 12:38:53;;;;;;;13.32;7.55;;;;;;;8.40;100.00;98749.91;8448491;28;20047;-79
2021/12/24 12:42:57;;;;;;;16.48;7.50;;;;;;;8.47;99.94;98735.13;8446331;28;20488;-79
2021/12/24 12:47:11;;;;;;;14.40;7.75;;;;;;;8.49;99.65;98736.53;8456511;27;20031;-81
2021/12/24 12:51:12;;;;;;;13.93;7.80;;;;;;;8.63;99.39;98734.16;8447878;28;20344;-80
2021/12/24 12:55:31;;;;;;;11.65;7.03;;;;;;;8.72;98.61;98734.50;8432156;28;20036;-80
2021/12/24 12:59:33;;;;;;;11.35;7.18;;;;;;;8.75;98.45;98731.22;8440619;28;20024;-80
2021/12/24 13:03:56;;;;;;;12.23;6.47;;;;;;;8.84;97.72;98724.97;8425559;28;20039;-80
2021/12/24 13:08:08;;;;;;;12.98;7.07;;;;;;;8.80;97.72;98731.25;8438095;28;20059;-80
2021/12/24 13:12:09;;;;;;;10.17;5.93;;;;;;;8.88;97.44;98736.25;8430131;28;20040;-80
2021/12/24 13:16:21;;;;;;;9.63;6.10;;;;;;;8.85;97.31;98723.03;8432597;28;20293;-79
2021/12/24 13:24:59;;;;;;;9.40;5.63;;;;;;;8.71;97.73;98728.16;8458206;28;20642;-80
2021/12/24 13:29:12;;;;;;;10.57;5.90;;;;;;;8.73;97.82;98714.19;8435008;28;20188;-79
2021/12/24 13:33:13;;;;;;;10.60;6.30;;;;;;;8.69;97.83;98729.53;8435311;28;20042;-80
2021/12/24 13:37:14;;;;;;;11.25;5.63;;;;;;;8.64;98.02;98720.16;8438192;28;20048;-81
2021/12/24 13:41:23;;;;;;;8.73;5.13;;;;;;;8.71;97.92;98711.69;8433694;28;20565;-80
2021/12/24 13:45:26;;;;;;;8.10;5.03;;;;;;;8.58;98.11;98699.25;8434582;28;20108;-80
2021/12/24 13:50:05;;;;;;;;;;;;;;;8.56;98.42;98704.16;8440783;28;20035;-81
2021/12/24 13:58:27;;;;;;;8.32;4.97;;;;;;;8.59;98.64;98720.13;8442618;28;20024;-81
2021/12/24 14:02:27;;;;;;;8.25;4.47;;;;;;;8.66;97.99;98728.97;8452119;28;20049;-81
2021/12/24 14:06:40;;;;;;;8.40;4.40;;;;;;;8.62;98.36;98743.47;8432762;28;20067;-80
2021/12/24 14:10:44;;;;;;;7.20;4.47;;;;;;;8.58;98.58;98734.94;8425713;28;20031;-81
2021/12/24 14:18:52;;;;;;;6.20;3.95;;;;;;;8.51;99.51;98728.84;8453993;28;20046;-81
2021/12/24 14:22:53;;;;;;;7.88;4.70;;;;;;;8.50;99.85;98729.09;8452570;28;20031;-80
2021/12/24 14:26:55;;;;;;;7.88;4.45;;;;;;;8.54;99.39;98724.78;8436769;28;20070;-80
2021/12/24 14:31:04;;;;;;;7.72;4.18;;;;;;;8.46;100.00;98715.09;8435794;28;20036;-81
2021/12/24 14:35:15;;;;;;;7.72;4.82;;;;;;;8.40;100.00;98716.97;8435750;28;20605;-81
2021/12/24 14:39:16;;;;;;;7.07;4.75;;;;;;;8.41;100.00;98724.09;8435531;28;20821;-80
2021/12/24 14:43:18;;;;;;;7.37;3.80;;;;;;;8.40;100.00;98713.41;8437687;28;20046;-81
2021/12/24 14:47:21;;;;;;;9.15;5.53;;;;;;;8.29;100.00;98714.38;8435482;28;20024;-81
2021/12/24 14:51:28;;;;;;;7.53;4.45;;;;;;;8.29;100.00;98704.19;8435064;28;20128;-81
2021/12/24 14:55:29;;;;;;;8.40;4.82;;;;;;;8.26;100.00;98715.72;8435562;28;20032;-80
2021/12/24 14:59:38;;;;;;;8.70;4.80;;;;;;;8.33;100.00;98721.81;8440151;28;20068;-81
2021/12/24 15:03:41;;;;;;;8.65;4.80;;;;;;;8.34;100.00;98707.00;8420214;28;20590;-81
2021/12/24 15:07:41;;;;;;;10.57;5.07;;;;;;;8.40;100.00;98711.47;8425887;28;20477;-81
2021/12/24 15:11:42;;;;;;;8.25;4.47;;;;;;;8.41;100.00;98720.53;8432719;28;20066;-81
2021/12/24 15:15:50;;;;;;;8.82;4.68;;;;;;;8.39;100.00;98728.22;8439148;28;20507;-81
2021/12/24 15:19:50;;;;;;;6.20;4.15;;;;;;;8.35;100.00;98721.53;8447929;28;20032;-81
2021/12/24 15:23:53;;;;;;;7.55;4.53;;;;;;;8.42;100.00;98725.78;8459267;28;20039;-81
2021/12/24 15:27:55;;;;;;;7.25;4.28;;;;;;;8.36;100.00;98725.97;8447616;27;20042;-81
2021/12/24 15:31:56;;;;;;;6.63;3.57;;;;;;;8.35;100.00;98714.13;8448572;28;20397;-81
2021/12/24 15:35:56;;;;;;;7.68;4.50;;;;;;;8.36;100.00;98707.56;8460353;28;20047;-81
2021/12/24 15:39:57;;;;;;;11.15;4.68;;;;;;;8.35;100.00;98711.38;8453451;28;20043;-81
2021/12/24 15:43:59;;;;;;;8.23;4.50;;;;;;;8.36;100.00;98712.25;8468615;28;20066;-81
2021/12/24 15:48:00;;;;;;;8.60;4.57;;;;;;;8.32;100.00;98713.84;8471096;27;20045;-81
2021/12/24 15:52:01;;;;;;;7.93;4.25;;;;;;;8.27;100.00;98716.53;8464469;28;20032;-81
2021/12/24 15:56:05;;;;;;;9.43;5.22;;;;;;;8.28;100.00;98721.78;8453497;28;20347;-82
2021/12/24 16:00:06;;;;;;;8.07;5.00;;;;;;;8.22;100.00;98728.31;8441523;27;20484;-81
2021/12/24 16:04:06;;;;;;;9.60;5.97;;;;;;;8.27;100.00;98733.00;8434009;28;20036;-84
2021/12/24 16:08:07;;;;;;;11.00;6.18;;;;;;;8.25;100.00;98730.53;8442406;28;20698;-84
2021/12/24 16:12:15;;;;;;;11.15;6.50;;;;;;;8.27;100.00;98719.28;8444412;28;20055;-84
2021/12/24 16:16:54;;;;;;;8.48;5.13;;;;;;;8.29;100.00;98723.41;8411961;28;20180;-84
2021/12/24 16:21:20;;;;;;;;;;;;;;;;;;;;;
2021/12/24 16:36:36;;;;;;;12.07;6.90;;;;;;;8.27;100.00;98706.41;8426708;28;20074;-85
2021/12/24 16:46:20;;;;;;;10.82;7.13;;;;;;;8.20;100.00;98706.59;8392883;28;20032;-86
2021/12/24 16:50:27;;;;;;;13.32;8.00;;;;;;;8.18;100.00;98711.53;8429106;28;20044;-85
2021/12/24 16:54:27;;;;;;;14.98;9.07;;;;;;;8.22;100.00;98706.34;8401709;28;20429;-85
2021/12/24 17:12:27;;;;;;;18.20;9.30;;;;;;;8.12;100.00;98698.88;8382435;28;20037;-85
2021/12/24 17:16:31;;;;;;;15.35;9.23;;;;;;;8.13;100.00;98697.78;8357303;28;20045;-85
2021/12/24 17:20:42;;;;;;;16.33;9.38;;;;;;;8.13;100.00;98702.44;8355586;28;20489;-86
2021/12/24 17:24:46;;;;;;;15.23;9.65;;;;;;;8.11;100.00;98702.69;8441982;22;20171;-86
2021/12/24 17:28:56;;;;;;;21.23;11.10;;;;;;;8.07;100.00;98701.56;8391913;28;20036;-84
2021/12/24 17:32:56;;;;;;;20.35;11.07;;;;;;;8.07;100.00;98706.22;8375912;28;20070;-83
2021/12/24 17:36:57;;;;;;;24.60;12.95;;;;;;;8.10;100.00;98708.44;8390784;28;20097;-82
2021/12/24 17:40:57;;;;;;;23.52;11.75;;;;;;;8.06;100.00;98710.03;8419973;28;20115;-82
2021/12/24 17:44:58;;;;;;;22.10;11.35;;;;;;;8.02;100.00;98697.94;8403160;28;20746;-81
2021/12/24 17:48:58;;;;;;;28.08;15.60;;;;;;;7.93;100.00;98698.41;8427771;28;20032;-82
2021/12/24 17:52:59;;;;;;;25.47;13.13;;;;;;;7.87;100.00;98688.47;8406197;28;20037;-82
2021/12/24 17:56:59;;;;;;;24.85;13.68;;;;;;;7.79;100.00;98685.38;8392277;28;20351;-82
2021/12/24 18:01:00;;;;;;;26.88;15.20;;;;;;;7.73;100.00;98674.38;8422461;28;20043;-81
2021/12/24 18:05:01;;;;;;;31.70;15.77;;;;;;;7.74;100.00;98676.00;8416985;28;20405;-81
2021/12/24 18:09:03;;;;;;;26.48;14.95;;;;;;;7.74;100.00;98673.28;8398150;28;20028;-80
2021/12/24 18:13:04;;;;;;;;;;;;;;;7.70;100.00;98677.63;8409155;28;20035;-81
2021/12/24 18:17:05;;;;;;;28.48;15.30;;;;;;;7.71;100.00;98671.06;8405378;28;19919;-80
2021/12/24 18:21:06;;;;;;;27.77;14.30;;;;;;;7.75;100.00;98674.91;8388710;28;20044;-81
2021/12/24 18:25:07;;;;;;;29.92;15.80;;;;;;;7.76;100.00;98676.59;8414486;28;20038;-80
2021/12/24 18:29:08;;;;;;;27.60;13.93;;;;;;;7.79;100.00;98672.47;8405913;28;20165;-80
2021/12/24 18:33:18;;;;;;;30.70;16.30;;;;;;;7.76;100.00;98667.50;8396564;28;20035;-81
2021/12/24 18:37:21;;;;;;;32.60;15.70;;;;;;;7.78;100.00;98670.00;8411902;28;20024;-82
2021/12/24 18:41:26;;;;;;;29.30;15.07;;;;;;;7.77;100.00;98663.72;8414861;28;20578;-80
2021/12/24 18:45:27;;;;;;;33.28;16.75;;;;;;;7.79;100.00;98650.53;8383737;28;20033;-79
2021/12/24 18:49:27;;;;;;;31.00;16.58;;;;;;;7.76;100.00;98657.41;8418492;28;20043;-80
2021/12/24 18:53:28;;;;;;;32.83;17.65;;;;;;;7.78;100.00;98659.88;8403826;28;20036;-79
2021/12/24 18:57:28;;;;;;;34.55;18.40;;;;;;;7.83;100.00;98659.09;8422883;28;20032;-81
2021/12/24 19:01:29;;;;;;;32.95;17.13;;;;;;;7.84;100.00;98663.47;8406414;28;20071;-80
2021/12/24 19:05:33;;;;;;;38.03;18.25;;;;;;;7.88;100.00;98661.88;8431073;28;20028;-80
2021/12/24 19:09:34;;;;;;;34.50;18.33;;;;;;;7.86;100.00;98666.81;8397785;28;20844;-81
2021/12/24 19:13:37;;;;;;;32.88;16.92;;;;;;;7.89;100.00;98674.50;8406793;28;20036;-82
2021/12/24 19:17:42;;;;;;;36.17;16.25;;;;;;;7.84;100.00;98674.47;8382866;28;20488;-82
2021/12/24 19:21:43;;;;;;;32.85;16.48;;;;;;;7.85;100.00;98671.47;8374797;28;20116;-81
2021/12/24 19:25:43;;;;;;;42.28;19.63;;;;;;;7.78;100.00;98673.56;8433325;28;20020;-81
2021/12/24 19:29:44;;;;;;;36.78;18.83;;;;;;;7.77;100.00;98680.16;8424759;28;20025;-81
2021/12/24 19:33:45;;;;;;;40.05;21.15;;;;;;;7.75;100.00;98677.66;8405536;28;20067;-81
2021/12/24 19:37:45;;;;;;;35.25;18.83;;;;;;;7.76;100.00;98679.34;8405974;28;20039;-81
2021/12/24 19:41:45;;;;;;;38.70;19.35;;;;;;;7.78;100.00;98664.53;8426109;28;20480;-81
2021/12/24 19:45:46;;;;;;;40.28;18.40;;;;;;;7.76;100.00;98668.38;8417772;28;20027;-81
2021/12/24 19:49:48;;;;;;;38.72;19.73;;;;;;;7.78;100.00;98659.88;8408962;28;20450;-82
2021/12/24 19:53:49;;;;;;;34.42;18.20;;;;;;;7.78;100.00;98659.88;8404012;28;20115;-81
2021/12/24 19:57:50;;;;;;;33.42;16.42;;;;;;;7.77;100.00;98671.94;8403830;28;20043;-82
2021/12/24 20:01:50;;;;;;;34.47;17.88;;;;;;;7.81;100.00;98669.50;8389980;28;20690;-80
2021/12/24 20:05:51;;;;;;;31.52;16.73;;;;;;;7.82;100.00;98671.97;8417312;28;20041;-80
2021/12/24 20:09:54;;;;;;;37.45;17.77;;;;;;;7.89;100.00;98675.34;8413285;28;20568;-82
2021/12/24 20:13:55;;;;;;;;;;;;;;;7.86;100.00;98680.53;8408407;28;20044;-82
2021/12/24 20:17:55;;;;;;;29.63;15.63;;;;;;;7.86;100.00;98664.06;8393246;28;20022;-81
2021/12/24 20:21:56;;;;;;;32.40;17.20;;;;;;;7.83;100.00;98670.88;8409521;28;20048;-81
2021/12/24 20:25:57;;;;;;;36.08;17.98;;;;;;;7.85;100.00;98676.09;8428627;28;20077;-81
2021/12/24 20:29:57;;;;;;;32.38;17.00;;;;;;;7.80;100.00;98679.63;8411105;28;20031;-81
2021/12/24 20:33:58;;;;;;;32.92;15.98;;;;;;;7.83;100.00;98675.56;8411509;28;20158;-82
2021/12/24 20:38:06;;;;;;;28.90;15.85;;;;;;;7.84;100.00;98666.22;8395009;28;20028;-82
2021/12/24 20:42:08;;;;;;;34.20;16.95;;;;;;;7.83;100.00;98662.66;8381147;28;20028;-82
2021/12/24 20:46:09;;;;;;;28.90;15.50;;;;;;;7.84;100.00;98666.22;8373054;28;20527;-83
2021/12/24 20:50:10;;;;;;;33.15;16.42;;;;;;;7.84;100.00;98658.00;8396184;28;20039;-82
2021/12/24 20:54:17;;;;;;;36.15;18.23;;;;;;;7.76;100.00;98651.91;8378752;28;20028;-82
2021/12/24 20:58:22;;;;;;;35.17;17.50;;;;;;;7.76;100.00;98640.94;8393088;28;20046;-82
2021/12/24 21:02:22;;;;;;;32.63;17.88;;;;;;;7.78;100.00;98648.06;8392942;28;20059;-82
2021/12/24 21:06:23;;;;;;;36.35;18.40;;;;;;;7.75;100.00;98644.75;8382737;28;20038;-82
2021/12/24 21:10:26;;;;;;;39.85;19.45;;;;;;;7.78;100.00;98639.84;8420004;28;20546;-82
2021/12/24 21:14:37;;;;;;;38.75;18.58;;;;;;;7.75;100.00;98633.78;8387674;28;20046;-83
2021/12/24 21:18:38;;;;;;;36.50;17.63;;;;;;;7.76;100.00;98632.72;8394076;28;20566;-80
2021/12/24 21:22:38;;;;;;;40.03;18.58;;;;;;;7.70;100.00;98631.03;8438384;28;20095;-79